Time;durP1;ratioP1;P1;durP2;ratioP2;P2;SDS_P1;SDS_P2;PMS_P1;PMS_P2;Temp;Humidity;BMP_temperature;BMP_pressure;BME280_temperature;BME280_humidity;BME280_pressure;Samples;Min_cycle;Max_cycle;Signal;HPM_P1;HPM_P2
2021/12/02 00:00:59;;;;;;;6.75;3.65;;;29.80;94.10;;;;;;5102354;28;20019;-72
2021/12/02 00:03:26;;;;;;;4.43;3.50;;;30.00;93.10;;;;;;5102308;28;20076;-71
2021/12/02 00:05:54;;;;;;;4.47;4.07;;;29.40;94.00;;;;;;5102334;28;20011;-69
2021/12/02 00:08:21;;;;;;;6.05;3.88;;;29.30;94.30;;;;;;5102107;28;20024;-70
2021/12/02 00:10:48;;;;;;;4.90;4.05;;;29.30;92.60;;;;;;5106885;28;20485;-73
2021/12/02 00:13:20;;;;;;;4.63;3.75;;;28.90;93.60;;;;;;5106422;28;20499;-73
2021/12/02 00:15:55;;;;;;;6.60;4.35;;;29.10;94.30;;;;;;5097829;28;20031;-74
2021/12/02 00:23:48;;;;;;;4.85;4.28;;;30.50;90.90;;;;;;5105517;28;20035;-68
2021/12/02 00:26:18;;;;;;;4.78;4.38;;;30.80;90.70;;;;;;5110533;28;20038;-71
2021/12/02 00:28:49;;;;;;;4.88;4.47;;;31.20;90.30;;;;;;5099182;28;20051;-69
2021/12/02 00:31:19;;;;;;;8.73;7.43;;;31.60;86.20;;;;;;5096850;28;20077;-70
2021/12/02 00:33:51;;;;;;;5.78;5.05;;;31.90;88.60;;;;;;5101146;28;20036;-71
2021/12/02 00:36:19;;;;;;;5.22;4.60;;;31.90;86.80;;;;;;5100109;28;20023;-69
2021/12/02 00:38:47;;;;;;;4.43;4.03;;;32.00;84.00;;;;;;5105444;28;20030;-72
2021/12/02 00:41:17;;;;;;;5.28;4.78;;;31.50;81.00;;;;;;5108916;28;20102;-69
2021/12/02 00:43:45;;;;;;;5.43;4.28;;;30.70;86.80;;;;;;5106823;28;20650;-73
2021/12/02 00:46:16;;;;;;;5.10;4.60;;;31.10;86.80;;;;;;5110306;28;20065;-72
2021/12/02 00:48:43;;;;;;;4.22;3.65;;;31.50;83.60;;;;;;5107104;28;20039;-72
2021/12/02 00:51:11;;;;;;;4.07;3.30;;;31.70;85.40;;;;;;5104270;28;20038;-70
2021/12/02 00:53:46;;;;;;;3.60;3.03;;;31.80;84.70;;;;;;5103689;28;20474;-71
2021/12/02 00:56:16;;;;;;;4.25;2.97;;;32.00;84.00;;;;;;5104305;28;20030;-74
2021/12/02 00:58:48;;;;;;;3.78;2.85;;;32.20;83.50;;;;;;5105301;28;20028;-71
2021/12/02 01:01:20;;;;;;;4.65;2.97;;;32.30;81.80;;;;;;5108071;28;20030;-74
2021/12/02 01:03:54;;;;;;;3.47;2.72;;;32.30;80.70;;;;;;5108000;28;20024;-68
2021/12/02 01:06:22;;;;;;;4.78;2.90;;;31.80;81.10;;;;;;5102879;28;20035;-69
2021/12/02 01:08:49;;;;;;;4.72;2.88;;;31.30;82.60;;;;;;5108526;28;20039;-73
2021/12/02 01:11:17;;;;;;;4.05;3.65;;;31.00;82.70;;;;;;5108754;28;20023;-74
2021/12/02 01:13:45;;;;;;;3.38;3.08;;;31.50;86.40;;;;;;5106085;28;20024;-71
2021/12/02 01:16:13;;;;;;;5.57;4.80;;;32.30;79.90;;;;;;5110231;28;20058;-68
2021/12/02 01:18:40;;;;;;;4.60;3.20;;;32.60;80.80;;;;;;5097795;28;20012;-71
2021/12/02 01:21:07;;;;;;;3.35;2.85;;;32.90;76.60;;;;;;5096101;28;20055;-68
2021/12/02 01:23:35;;;;;;;3.80;3.13;;;33.20;72.10;;;;;;5109420;28;20119;-67
2021/12/02 01:26:07;;;;;;;5.05;3.00;;;33.00;75.60;;;;;;5102215;28;20413;-70
2021/12/02 01:28:36;;;;;;;4.93;3.33;;;32.70;74.20;;;;;;5098117;28;20043;-69
2021/12/02 01:31:04;;;;;;;3.05;2.70;;;32.20;76.60;;;;;;5106795;28;20027;-73
2021/12/02 01:33:32;;;;;;;3.10;2.67;;;32.00;76.50;;;;;;5105433;28;20450;-72
2021/12/02 01:36:02;;;;;;;4.03;2.55;;;32.20;78.40;;;;;;5101516;28;20474;-70
2021/12/02 01:38:31;;;;;;;3.90;2.40;;;32.70;74.60;;;;;;5102951;28;20024;-73
2021/12/02 01:41:01;;;;;;;3.65;2.60;;;32.70;73.50;;;;;;5077449;28;20028;-70
2021/12/02 01:43:47;;;;;;;3.55;2.30;;;32.90;75.50;;;;;;5101467;28;20101;-75
2021/12/02 01:46:17;;;;;;;3.22;2.53;;;32.90;74.20;;;;;;5098061;28;20011;-74
2021/12/02 01:48:48;;;;;;;3.00;2.30;;;33.40;74.20;;;;;;5096498;28;20076;-69
2021/12/02 01:51:19;;;;;;;3.75;2.47;;;33.90;70.60;;;;;;5098758;28;20026;-73
2021/12/02 01:53:51;;;;;;;3.80;2.53;;;33.60;70.90;;;;;;5104256;28;20032;-69
2021/12/02 01:56:19;;;;;;;2.60;2.00;;;33.80;71.70;;;;;;5097779;28;20401;-68
2021/12/02 01:58:49;;;;;;;2.30;2.10;;;34.20;71.20;;;;;;5101123;28;20024;-66
2021/12/02 02:01:27;;;;;;;2.53;1.95;;;34.50;67.10;;;;;;5099199;28;20073;-70
2021/12/02 02:03:55;;;;;;;2.72;1.92;;;35.00;61.80;;;;;;5110516;28;20016;-68
2021/12/02 02:06:33;;;;;;;3.35;1.92;;;34.90;63.20;;;;;;5101180;28;20027;-67
2021/12/02 02:09:01;;;;;;;2.58;1.90;;;35.00;63.00;;;;;;5095123;28;20020;-68
2021/12/02 02:11:30;;;;;;;2.35;2.00;;;34.40;64.90;;;;;;5094006;28;20020;-68
2021/12/02 02:13:59;;;;;;;2.85;1.95;;;33.70;64.50;;;;;;5108310;28;20016;-69
2021/12/02 02:16:28;;;;;;;2.08;1.67;;;33.30;67.50;;;;;;5104426;28;20030;-73
2021/12/02 02:18:55;;;;;;;1.85;1.60;;;33.30;66.20;;;;;;5079385;28;20107;-65
2021/12/02 02:21:23;;;;;;;2.55;1.60;;;33.80;67.60;;;;;;5093589;28;20020;-72
2021/12/02 02:23:58;;;;;;;2.50;1.80;;;33.60;66.30;;;;;;5101003;28;20025;-69
2021/12/02 02:26:29;;;;;;;2.30;2.00;;;33.70;68.70;;;;;;5100288;28;20470;-69
2021/12/02 02:28:57;;;;;;;3.47;1.80;;;34.20;65.80;;;;;;5095979;28;20108;-74
2021/12/02 02:31:27;;;;;;;2.13;1.63;;;34.60;63.40;;;;;;5096668;28;20027;-74
2021/12/02 02:33:54;;;;;;;2.28;1.65;;;35.10;61.90;;;;;;5082960;28;20363;-71
2021/12/02 02:36:32;;;;;;;1.75;1.55;;;35.50;56.70;;;;;;5100784;28;20019;-74
2021/12/02 02:39:02;;;;;;;2.03;1.60;;;34.80;57.20;;;;;;5095687;28;20359;-69
2021/12/02 02:41:37;;;;;;;3.05;1.88;;;34.00;63.10;;;;;;5101663;28;20012;-71
2021/12/02 02:44:06;;;;;;;3.65;2.05;;;33.70;63.10;;;;;;5096322;28;20350;-71
2021/12/02 02:46:41;;;;;;;3.05;1.70;;;33.90;60.20;;;;;;5099678;28;20039;-74
2021/12/02 02:49:11;;;;;;;2.25;1.50;;;32.80;61.70;;;;;;5098003;28;20025;-73
2021/12/02 02:51:40;;;;;;;3.20;1.92;;;31.90;62.90;;;;;;5100446;28;20099;-74
2021/12/02 02:54:10;;;;;;;2.40;1.60;;;31.50;66.20;;;;;;5101949;28;20012;-74
2021/12/02 02:56:47;;;;;;;1.40;1.20;;;31.70;70.70;;;;;;5097879;28;20048;-73
2021/12/02 02:59:32;;;;;;;4.03;1.67;;;32.40;66.40;;;;;;5094289;28;20019;-75
2021/12/02 03:10:40;;;;;;;3.03;1.27;;;34.70;60.90;;;;;;5095146;28;20049;-70
2021/12/02 03:12:42;;;;;;;3.13;1.77;;;34.00;62.00;;;;;;5091312;28;20126;-74
2021/12/02 03:17:36;;;;;;;1.92;1.50;;;33.00;61.10;;;;;;5102323;28;20051;-72
2021/12/02 03:20:05;;;;;;;1.88;1.40;;;32.40;62.50;;;;;;5078341;28;20505;-72
2021/12/02 03:22:33;;;;;;;1.35;1.25;;;31.80;64.50;;;;;;5103707;28;20035;-71
2021/12/02 03:25:00;;;;;;;1.67;1.35;;;31.80;66.90;;;;;;5104631;28;20012;-73
2021/12/02 03:27:27;;;;;;;1.73;1.33;;;32.70;67.00;;;;;;5095615;28;20044;-73
2021/12/02 03:29:54;;;;;;;1.38;1.10;;;33.40;66.20;;;;;;5076661;28;20355;-71
2021/12/02 03:32:21;;;;;;;2.22;1.27;;;33.60;62.50;;;;;;5109917;28;20027;-74
2021/12/02 03:34:48;;;;;;;2.90;1.73;;;34.20;65.70;;;;;;5098353;28;20031;-73
2021/12/02 03:37:16;;;;;;;4.50;1.58;;;34.80;61.20;;;;;;5095214;28;20043;-72
2021/12/02 03:39:44;;;;;;;1.38;1.15;;;35.20;57.70;;;;;;5092594;28;20504;-72
2021/12/02 03:42:11;;;;;;;2.80;1.10;;;35.20;56.90;;;;;;5102177;28;20393;-73
2021/12/02 03:44:38;;;;;;;4.97;1.38;;;35.20;56.90;;;;;;5094974;28;20112;-71
2021/12/02 03:47:05;;;;;;;2.83;1.20;;;35.00;59.40;;;;;;5102206;28;20027;-70
2021/12/02 03:49:32;;;;;;;2.05;1.02;;;34.00;59.20;;;;;;5092140;28;20514;-71
2021/12/02 03:51:59;;;;;;;2.85;1.30;;;34.10;60.00;;;;;;5076268;28;20024;-72
2021/12/02 03:54:27;;;;;;;1.63;1.02;;;34.00;59.40;;;;;;5103429;28;20023;-73
2021/12/02 03:56:54;;;;;;;1.45;1.17;;;34.20;60.70;;;;;;5094948;28;20035;-73
2021/12/02 03:59:20;;;;;;;1.98;1.17;;;34.70;58.30;;;;;;5093810;28;20020;-74
2021/12/02 04:01:48;;;;;;;2.22;1.30;;;34.90;59.30;;;;;;5092047;28;20020;-73
2021/12/02 04:04:15;;;;;;;1.98;1.10;;;35.20;57.80;;;;;;5095929;28;20461;-72
2021/12/02 04:06:42;;;;;;;1.98;1.08;;;35.40;55.70;;;;;;5094344;28;20022;-71
2021/12/02 04:09:16;;;;;;;1.77;0.93;;;35.70;54.90;;;;;;5094980;28;20052;-72
2021/12/02 04:11:52;;;;;;;2.25;1.00;;;35.50;55.60;;;;;;5102692;28;20024;-71
2021/12/02 04:14:26;;;;;;;2.58;0.90;;;34.40;57.10;;;;;;5095352;28;20386;-73
2021/12/02 04:17:04;;;;;;;2.55;0.95;;;33.90;56.50;;;;;;5096391;28;20023;-71
2021/12/02 04:19:31;;;;;;;1.83;1.10;;;34.00;57.70;;;;;;5092099;28;20020;-75
2021/12/02 04:21:59;;;;;;;1.60;1.17;;;34.60;53.40;;;;;;5100514;28;20115;-71
2021/12/02 04:24:26;;;;;;;1.33;1.00;;;34.70;56.50;;;;;;5088430;28;20015;-71
2021/12/02 04:26:54;;;;;;;1.63;1.25;;;34.60;53.60;;;;;;5096817;28;20048;-72
2021/12/02 04:29:25;;;;;;;2.92;2.15;;;35.20;52.50;;;;;;5092305;28;20016;-71
2021/12/02 04:31:52;;;;;;;2.65;1.10;;;35.40;55.10;;;;;;5093931;28;20103;-72
2021/12/02 04:34:20;;;;;;;1.77;1.08;;;35.70;54.90;;;;;;5099834;28;20381;-72
2021/12/02 04:36:47;;;;;;;1.42;1.20;;;35.90;53.90;;;;;;5098688;28;20028;-73
2021/12/02 04:39:14;;;;;;;3.30;1.48;;;35.40;52.00;;;;;;5099326;28;20020;-71
2021/12/02 04:41:41;;;;;;;2.35;1.10;;;35.90;54.60;;;;;;5099296;28;20028;-71
2021/12/02 04:44:08;;;;;;;2.80;1.05;;;36.20;54.50;;;;;;5099709;28;20022;-71
2021/12/02 04:46:35;;;;;;;2.25;0.80;;;36.60;55.00;;;;;;5096375;28;20019;-72
2021/12/02 04:49:03;;;;;;;2.53;1.08;;;36.40;57.00;;;;;;4376992;28;10000728;-72
2021/12/02 04:51:30;;;;;;;3.33;1.30;;;35.80;58.30;;;;;;5101939;28;20012;-71
2021/12/02 04:53:57;;;;;;;2.95;1.08;;;36.00;58.30;;;;;;5099175;28;20047;-74
2021/12/02 04:56:24;;;;;;;2.60;0.90;;;36.00;57.90;;;;;;5096786;28;20035;-73
2021/12/02 04:58:51;;;;;;;1.75;0.90;;;35.40;59.20;;;;;;5103791;28;20122;-72
2021/12/02 05:01:18;;;;;;;2.72;1.10;;;34.80;59.90;;;;;;5084203;28;20039;-70
2021/12/02 05:03:45;;;;;;;2.50;1.20;;;35.00;59.70;;;;;;5097522;28;20039;-71
2021/12/02 05:06:12;;;;;;;1.92;0.68;;;34.00;59.80;;;;;;5097498;28;20055;-70
2021/12/02 05:08:39;;;;;;;1.65;0.90;;;33.20;64.00;;;;;;5100863;28;20114;-71
2021/12/02 05:11:06;;;;;;;1.58;0.90;;;33.50;65.20;;;;;;5103371;28;20056;-72
2021/12/02 05:13:33;;;;;;;1.48;0.68;;;34.10;63.30;;;;;;5092931;28;20032;-73
2021/12/02 05:16:03;;;;;;;1.48;0.80;;;34.70;63.90;;;;;;5096628;28;20081;-69
2021/12/02 05:18:30;;;;;;;2.15;0.75;;;34.90;61.20;;;;;;5095189;28;20036;-71
2021/12/02 05:20:57;;;;;;;2.00;0.90;;;35.20;61.50;;;;;;5099537;28;20030;-71
2021/12/02 05:23:24;;;;;;;1.67;0.60;;;34.50;61.80;;;;;;5098308;28;20020;-72
2021/12/02 05:25:51;;;;;;;2.20;0.70;;;34.60;63.90;;;;;;5098117;28;20025;-71
2021/12/02 05:28:18;;;;;;;2.38;0.85;;;34.90;62.30;;;;;;5100829;28;20061;-69
2021/12/02 05:30:46;;;;;;;1.98;0.95;;;34.90;62.50;;;;;;5107604;28;20027;-70
2021/12/02 05:33:14;;;;;;;2.22;0.73;;;35.00;61.80;;;;;;5097737;28;20048;-70
2021/12/02 05:35:45;;;;;;;1.38;0.70;;;35.20;62.90;;;;;;5096690;28;20062;-69
2021/12/02 05:38:12;;;;;;;1.88;0.80;;;35.60;62.60;;;;;;5098236;28;20023;-69
2021/12/02 05:40:39;;;;;;;4.28;1.05;;;35.90;59.90;;;;;;5098530;28;20028;-69
2021/12/02 05:43:06;;;;;;;2.78;1.00;;;35.50;60.10;;;;;;5102999;28;20043;-68
2021/12/02 05:45:33;;;;;;;3.65;0.70;;;35.50;60.00;;;;;;5101723;28;20051;-71
2021/12/02 05:48:00;;;;;;;1.98;0.80;;;35.70;60.60;;;;;;5100002;28;20644;-67
2021/12/02 05:50:28;;;;;;;3.67;1.00;;;35.80;62.70;;;;;;5079287;28;20028;-69
2021/12/02 05:52:55;;;;;;;4.80;1.13;;;36.10;62.10;;;;;;5099624;28;20426;-71
2021/12/02 05:55:22;;;;;;;1.85;0.82;;;35.30;60.60;;;;;;5095581;28;20086;-69
2021/12/02 05:57:49;;;;;;;1.35;0.65;;;34.40;62.70;;;;;;5089911;28;20032;-70
2021/12/02 06:00:17;;;;;;;3.60;1.45;;;33.60;65.70;;;;;;5102576;28;20045;-69
2021/12/02 06:02:44;;;;;;;2.50;1.00;;;33.10;66.50;;;;;;5103485;28;20038;-70
2021/12/02 06:05:21;;;;;;;2.20;1.00;;;32.40;68.10;;;;;;5099161;28;20034;-70
2021/12/02 06:07:57;;;;;;;2.38;0.90;;;32.90;69.60;;;;;;5101210;28;20029;-69
2021/12/02 06:10:25;;;;;;;2.45;0.98;;;34.10;66.90;;;;;;5096592;28;20030;-69
2021/12/02 06:12:52;;;;;;;2.08;1.15;;;35.10;62.10;;;;;;5098802;28;21414;-69
2021/12/02 06:15:19;;;;;;;2.22;1.00;;;35.50;62.40;;;;;;5096274;28;20031;-71
2021/12/02 06:17:47;;;;;;;2.53;1.02;;;35.70;60.90;;;;;;5088322;28;20751;-70
2021/12/02 06:20:19;;;;;;;1.90;1.10;;;36.20;60.20;;;;;;5100342;28;20052;-67
2021/12/02 06:22:47;;;;;;;1.73;0.90;;;36.50;60.20;;;;;;5100448;28;20020;-68
2021/12/02 06:27:52;;;;;;;1.85;0.80;;;36.70;59.10;;;;;;5100648;28;20079;-68
2021/12/02 06:30:22;;;;;;;0.95;0.85;;;36.90;57.40;;;;;;5095221;28;20027;-72
2021/12/02 06:32:49;;;;;;;3.70;1.02;;;36.90;57.20;;;;;;5105082;28;20077;-73
2021/12/02 06:35:17;;;;;;;2.13;1.08;;;36.90;56.60;;;;;;5095595;28;20024;-70
2021/12/02 06:37:47;;;;;;;1.92;0.80;;;36.90;56.00;;;;;;5103200;28;20036;-69
2021/12/02 06:40:15;;;;;;;2.30;0.90;;;37.00;57.80;;;;;;5097837;28;20050;-66
2021/12/02 06:42:42;;;;;;;2.05;0.93;;;37.10;55.30;;;;;;5099357;28;20069;-70
2021/12/02 06:45:12;;;;;;;2.65;0.90;;;37.20;55.30;;;;;;5099779;28;20024;-71
2021/12/02 06:47:40;;;;;;;1.98;0.95;;;36.70;55.10;;;;;;5104250;28;20131;-71
2021/12/02 06:50:16;;;;;;;2.03;1.77;;;36.00;56.20;;;;;;5101382;28;20367;-67
2021/12/02 06:52:45;;;;;;;13.77;12.45;;;35.60;58.20;;;;;;5102489;28;20028;-71
2021/12/02 06:55:15;;;;;;;5.32;3.85;;;34.90;58.50;;;;;;5085864;28;20080;-67
2021/12/02 06:57:44;;;;;;;2.58;1.90;;;33.70;61.80;;;;;;5105008;28;20100;-70
2021/12/02 07:00:14;;;;;;;2.35;1.30;;;32.90;63.40;;;;;;5101419;28;20027;-75
2021/12/02 07:02:42;;;;;;;1.02;0.77;;;32.20;65.50;;;;;;5101858;28;20020;-68
2021/12/02 07:05:11;;;;;;;1.02;0.93;;;31.60;66.70;;;;;;5101857;28;20627;-69
2021/12/02 07:07:38;;;;;;;3.10;1.10;;;30.80;70.10;;;;;;5099693;28;20030;-68
2021/12/02 07:10:08;;;;;;;1.02;0.75;;;31.00;69.60;;;;;;5103579;28;20023;-69
2021/12/02 07:12:38;;;;;;;2.55;1.90;;;31.30;72.10;;;;;;5100525;28;20016;-73
2021/12/02 07:15:11;;;;;;;2.13;1.02;;;32.40;68.50;;;;;;5082197;28;20024;-68
2021/12/02 07:17:38;;;;;;;1.23;1.02;;;33.80;64.60;;;;;;5098070;28;20027;-73
2021/12/02 07:20:06;;;;;;;3.83;2.13;;;34.40;61.20;;;;;;5082873;28;20052;-69
2021/12/02 07:22:33;;;;;;;2.20;1.58;;;34.90;62.00;;;;;;5100144;28;20016;-71
2021/12/02 07:25:00;;;;;;;3.42;1.23;;;35.20;61.60;;;;;;5099976;28;20736;-73
2021/12/02 07:27:27;;;;;;;1.65;1.17;;;35.20;62.20;;;;;;5100281;28;20047;-71
2021/12/02 07:29:54;;;;;;;3.75;1.00;;;35.10;60.60;;;;;;5099700;28;20035;-69
2021/12/02 07:32:24;;;;;;;3.42;1.27;;;35.30;58.70;;;;;;5098129;28;20038;-74
2021/12/02 07:34:54;;;;;;;1.42;1.10;;;35.30;60.00;;;;;;5098942;28;20031;-73
2021/12/02 07:37:22;;;;;;;3.65;1.92;;;35.50;57.80;;;;;;5101511;28;20398;-69
2021/12/02 07:39:50;;;;;;;2.53;2.00;;;35.20;58.30;;;;;;5100850;28;20020;-70
2021/12/02 07:42:17;;;;;;;1.42;0.80;;;35.30;58.10;;;;;;5099847;28;20024;-70
2021/12/02 07:44:44;;;;;;;1.67;1.23;;;35.10;58.80;;;;;;5100734;28;20030;-70
2021/12/02 07:47:13;;;;;;;2.30;0.82;;;34.60;58.70;;;;;;5069619;28;20442;-73
2021/12/02 07:49:40;;;;;;;1.10;0.90;;;34.70;59.00;;;;;;5100460;28;20028;-72
2021/12/02 07:52:09;;;;;;;1.30;0.80;;;34.40;60.20;;;;;;5095525;28;20027;-72
2021/12/02 07:54:42;;;;;;;1.13;0.60;;;34.00;61.20;;;;;;5102951;28;20035;-71
2021/12/02 07:57:13;;;;;;;2.47;1.00;;;34.00;60.60;;;;;;5097518;28;20019;-72
2021/12/02 07:59:41;;;;;;;1.10;0.90;;;34.00;60.50;;;;;;5102417;28;20024;-72
2021/12/02 08:02:15;;;;;;;0.60;0.60;;;33.90;60.40;;;;;;5097799;28;20400;-71
2021/12/02 08:04:42;;;;;;;1.50;0.95;;;33.50;61.30;;;;;;5100222;28;20035;-71
2021/12/02 08:07:09;;;;;;;2.72;1.27;;;33.20;63.50;;;;;;5099759;28;20035;-73
2021/12/02 08:09:37;;;;;;;1.17;0.75;;;33.10;62.50;;;;;;5101954;28;20064;-73
2021/12/02 08:12:04;;;;;;;3.30;1.20;;;32.80;63.70;;;;;;5096585;28;20023;-72
2021/12/02 08:14:31;;;;;;;1.77;1.08;;;32.70;63.60;;;;;;5096689;28;20515;-73
2021/12/02 08:16:59;;;;;;;2.90;1.38;;;32.40;64.10;;;;;;5097721;28;20027;-73
2021/12/02 08:19:26;;;;;;;5.78;1.88;;;31.40;66.30;;;;;;5100532;28;20055;-74
2021/12/02 08:21:54;;;;;;;2.38;0.80;;;30.40;70.00;;;;;;5100315;28;20054;-74
2021/12/02 08:24:23;;;;;;;2.63;0.98;;;29.50;73.00;;;;;;5098827;28;20028;-71
2021/12/02 08:26:50;;;;;;;1.75;1.20;;;28.90;77.10;;;;;;5095319;28;20126;-73
2021/12/02 08:29:17;;;;;;;4.20;0.77;;;28.70;78.40;;;;;;5096211;28;20027;-71
2021/12/02 08:31:45;;;;;;;1.83;0.95;;;28.10;81.40;;;;;;5099780;28;20016;-73
2021/12/02 08:34:12;;;;;;;1.83;1.02;;;27.50;85.10;;;;;;5094468;28;20419;-71
2021/12/02 08:36:46;;;;;;;2.22;1.30;;;27.00;89.60;;;;;;5097471;28;20031;-71
2021/12/02 08:39:25;;;;;;;2.08;1.35;;;26.50;91.20;;;;;;5097683;28;20034;-73
2021/12/02 08:41:54;;;;;;;1.13;0.70;;;26.20;92.70;;;;;;5099550;28;20027;-71
2021/12/02 08:44:23;;;;;;;1.33;1.15;;;25.80;94.50;;;;;;5102003;28;20063;-70
2021/12/02 08:46:51;;;;;;;2.80;1.00;;;25.50;96.20;;;;;;5101340;28;20062;-72
2021/12/02 08:49:20;;;;;;;2.10;1.00;;;25.30;97.20;;;;;;5084025;28;20110;-72
2021/12/02 08:51:47;;;;;;;2.92;1.33;;;25.10;98.70;;;;;;5098896;28;20418;-72
2021/12/02 08:54:15;;;;;;;1.75;0.90;;;24.90;99.40;;;;;;5099415;28;20023;-70
2021/12/02 08:56:42;;;;;;;1.02;0.70;;;24.70;99.90;;;;;;5101195;28;20095;-73
2021/12/02 08:59:09;;;;;;;2.00;1.00;;;24.50;99.90;;;;;;5099699;28;20024;-74
2021/12/02 09:01:37;;;;;;;2.58;0.98;;;24.30;99.90;;;;;;5102443;28;20020;-75
2021/12/02 09:04:04;;;;;;;2.67;1.10;;;24.10;99.90;;;;;;5097316;28;20032;-72
2021/12/02 09:06:32;;;;;;;3.28;1.00;;;23.90;99.90;;;;;;5099037;28;20032;-74
2021/12/02 09:08:59;;;;;;;1.02;0.80;;;23.80;99.90;;;;;;5100206;28;20027;-74
2021/12/02 09:11:31;;;;;;;2.55;0.98;;;23.80;99.90;;;;;;5103575;28;20015;-71
2021/12/02 09:13:58;;;;;;;1.92;0.70;;;23.60;99.90;;;;;;5099675;28;20051;-70
2021/12/02 09:16:26;;;;;;;2.90;0.85;;;23.30;99.90;;;;;;5097623;28;20701;-74
2021/12/02 09:18:54;;;;;;;3.72;1.02;;;23.20;99.90;;;;;;5102237;28;20031;-73
2021/12/02 09:21:21;;;;;;;2.00;0.80;;;23.20;99.90;;;;;;5098043;28;20426;-71
2021/12/02 09:23:49;;;;;;;4.28;1.00;;;23.10;99.90;;;;;;5098050;28;20023;-73
2021/12/02 09:26:16;;;;;;;2.10;1.10;;;23.10;99.90;;;;;;5098538;28;20024;-71
2021/12/02 09:28:50;;;;;;;3.58;1.08;;;23.00;99.90;;;;;;5102441;28;20074;-73
2021/12/02 09:31:17;;;;;;;4.70;2.80;;;23.00;99.90;;;;;;5101915;28;20072;-71
2021/12/02 09:33:44;;;;;;;2.40;1.40;;;22.80;99.90;;;;;;5099310;28;20070;-71
2021/12/02 09:36:12;;;;;;;5.05;0.88;;;22.70;99.90;;;;;;5078142;28;20032;-70
2021/12/02 09:38:39;;;;;;;2.47;0.70;;;22.70;99.90;;;;;;5101494;28;20027;-74
2021/12/02 09:41:06;;;;;;;1.08;0.82;;;22.60;99.90;;;;;;5095424;28;20056;-72
2021/12/02 09:43:33;;;;;;;2.28;0.95;;;22.60;99.90;;;;;;5101925;28;20108;-74
2021/12/02 09:46:00;;;;;;;3.22;1.60;;;22.50;99.90;;;;;;5097697;28;20024;-74
2021/12/02 09:48:28;;;;;;;3.83;0.93;;;22.50;99.90;;;;;;5096912;28;20639;-73
2021/12/02 09:51:22;;;;;;;1.25;0.68;;;22.40;99.90;;;;;;5099791;28;20028;-72
2021/12/02 09:53:55;;;;;;;1.75;0.75;;;22.30;99.90;;;;;;5093182;28;20162;-71
2021/12/02 09:56:27;;;;;;;1.58;0.80;;;22.30;99.90;;;;;;5097787;28;20031;-73
2021/12/02 09:58:59;;;;;;;1.25;0.73;;;22.20;99.90;;;;;;5089591;28;20036;-73
2021/12/02 10:01:36;;;;;;;2.47;1.17;;;22.10;99.90;;;;;;5099688;28;20110;-69
2021/12/02 10:04:05;;;;;;;1.42;0.80;;;22.00;99.90;;;;;;5096265;28;20059;-74
2021/12/02 10:06:33;;;;;;;5.38;0.90;;;21.90;99.90;;;;;;5089679;28;20056;-71
2021/12/02 10:09:12;;;;;;;0.85;0.70;;;21.90;99.90;;;;;;5093026;28;20031;-69
2021/12/02 10:11:56;;;;;;;1.63;0.70;;;21.90;99.90;;;;;;5099652;28;20035;-69
2021/12/02 10:14:33;;;;;;;2.25;0.95;;;21.90;99.90;;;;;;5099441;28;20023;-72
2021/12/02 10:17:32;;;;;;;1.95;0.80;;;21.80;99.90;;;;;;5098749;28;20146;-67
2021/12/02 10:23:27;;;;;;;2.80;0.77;;;21.70;99.90;;;;;;5094677;28;20042;-73
2021/12/02 10:26:03;;;;;;;7.93;1.52;;;21.70;99.90;;;;;;5087502;28;20016;-69
2021/12/02 10:28:42;;;;;;;2.85;0.95;;;21.70;99.90;;;;;;5140506;22;20441;-68
2021/12/02 10:31:11;;;;;;;2.22;0.63;;;21.60;99.90;;;;;;5093690;28;20099;-73
2021/12/02 10:33:44;;;;;;;2.25;0.82;;;21.60;99.90;;;;;;5093019;28;20047;-68
2021/12/02 10:36:48;;;;;;;1.02;0.57;;;21.60;99.90;;;;;;5087787;28;20020;-69
2021/12/02 10:39:25;;;;;;;1.35;0.63;;;21.60;99.90;;;;;;5093545;28;20024;-69
2021/12/02 10:42:07;;;;;;;2.58;0.82;;;21.60;99.90;;;;;;5095497;28;20069;-72
2021/12/02 10:44:36;;;;;;;1.95;0.70;;;21.50;99.90;;;;;;5097530;28;20598;-68
2021/12/02 10:47:08;;;;;;;2.17;0.60;;;21.50;99.90;;;;;;5093514;28;20502;-70
2021/12/02 10:49:50;;;;;;;1.27;0.70;;;21.50;99.90;;;;;;5097838;28;20030;-70
2021/12/02 10:52:24;;;;;;;1.23;0.85;;;21.50;99.90;;;;;;5090705;28;20085;-73
2021/12/02 10:55:02;;;;;;;2.20;0.90;;;21.30;99.90;;;;;;5094635;28;20056;-72
2021/12/02 10:57:31;;;;;;;1.85;0.75;;;21.30;99.90;;;;;;5074873;28;20090;-71
2021/12/02 11:00:12;;;;;;;3.28;2.35;;;21.20;99.90;;;;;;5097565;28;20030;-71
2021/12/02 11:02:46;;;;;;;5.20;2.33;;;21.00;99.90;;;;;;5081120;28;20437;-70
2021/12/02 11:05:21;;;;;;;4.28;1.70;;;21.00;99.90;;;;;;5097220;28;20062;-70
2021/12/02 11:07:57;;;;;;;2.22;1.30;;;20.90;99.90;;;;;;5096713;28;20061;-69
2021/12/02 11:10:26;;;;;;;1.20;0.80;;;20.90;99.90;;;;;;5089239;28;20031;-71
2021/12/02 11:12:56;;;;;;;2.33;0.68;;;20.90;99.90;;;;;;5091540;28;20490;-70
2021/12/02 11:15:28;;;;;;;2.63;1.02;;;21.00;99.90;;;;;;5088664;28;20036;-69
2021/12/02 11:17:58;;;;;;;4.80;0.80;;;21.00;99.90;;;;;;5086964;28;20063;-70
2021/12/02 11:20:29;;;;;;;1.80;0.93;;;20.90;99.90;;;;;;5092708;28;20023;-70
2021/12/02 11:23:15;;;;;;;1.75;0.75;;;20.90;99.90;;;;;;5095856;28;20887;-71
2021/12/02 11:26:01;;;;;;;1.42;0.77;;;20.80;99.90;;;;;;5093367;28;20027;-70
2021/12/02 11:28:34;;;;;;;1.98;1.05;;;20.70;99.90;;;;;;5102461;28;20047;-71
2021/12/02 11:31:21;;;;;;;1.95;0.90;;;20.60;99.90;;;;;;5094151;28;20031;-68
2021/12/02 11:33:52;;;;;;;1.73;0.75;;;20.60;99.90;;;;;;5092078;28;20054;-69
2021/12/02 11:36:25;;;;;;;3.05;0.80;;;20.60;99.90;;;;;;5094943;28;20036;-71
2021/12/02 11:38:58;;;;;;;2.38;1.10;;;20.60;99.90;;;;;;5091859;28;20174;-69
2021/12/02 11:41:26;;;;;;;1.00;0.70;;;20.60;99.90;;;;;;5087736;28;20016;-68
2021/12/02 11:43:54;;;;;;;1.90;0.80;;;20.50;99.90;;;;;;5095362;28;20046;-70
2021/12/02 11:46:22;;;;;;;0.77;0.47;;;20.50;99.90;;;;;;5094371;28;20035;-69
2021/12/02 11:48:50;;;;;;;2.45;0.90;;;20.50;99.90;;;;;;5093108;28;20035;-69
2021/12/02 11:51:20;;;;;;;2.75;0.70;;;20.50;99.90;;;;;;5089246;28;20126;-68
2021/12/02 11:53:47;;;;;;;1.20;0.70;;;20.50;99.90;;;;;;5090663;28;20035;-69
2021/12/02 11:56:17;;;;;;;2.47;1.25;;;20.40;99.90;;;;;;5103018;28;20023;-69
2021/12/02 11:58:45;;;;;;;2.38;1.30;;;20.40;99.90;;;;;;5095069;28;20098;-68
2021/12/02 12:01:31;;;;;;;2.88;1.35;;;20.30;99.90;;;;;;5091875;28;20812;-68
2021/12/02 12:04:10;;;;;;;4.72;3.45;;;20.40;99.90;;;;;;5095290;28;20426;-69
2021/12/02 12:06:41;;;;;;;3.45;1.02;;;20.40;99.90;;;;;;5092316;28;20019;-69
2021/12/02 12:09:20;;;;;;;1.63;1.05;;;20.30;99.90;;;;;;5088503;28;20028;-67
2021/12/02 12:11:49;;;;;;;1.50;1.00;;;20.40;99.90;;;;;;5097541;28;20110;-68
2021/12/02 12:14:19;;;;;;;3.78;1.35;;;20.40;99.90;;;;;;5076183;28;20445;-67
2021/12/02 12:17:05;;;;;;;1.48;1.38;;;20.30;99.90;;;;;;5073118;28;20032;-69
2021/12/02 12:19:38;;;;;;;2.22;1.85;;;20.30;99.90;;;;;;5096175;28;20028;-68
2021/12/02 12:22:14;;;;;;;4.38;3.47;;;20.20;99.90;;;;;;5097658;28;20019;-67
2021/12/02 12:24:54;;;;;;;4.38;1.80;;;20.10;99.90;;;;;;5093145;28;20023;-68
2021/12/02 12:27:28;;;;;;;4.13;1.10;;;20.00;99.90;;;;;;5097757;28;20040;-66
2021/12/02 12:30:08;;;;;;;3.00;0.90;;;20.00;99.90;;;;;;5090211;28;20126;-68
2021/12/02 12:37:55;;;;;;;2.40;1.23;;;20.00;99.90;;;;;;5088157;28;20498;-69
2021/12/02 12:40:26;;;;;;;4.57;2.42;;;20.00;99.90;;;;;;5095386;28;20028;-66
2021/12/02 12:43:17;;;;;;;2.00;1.30;;;19.90;99.90;;;;;;5093090;28;20475;-66
2021/12/02 12:45:45;;;;;;;1.25;0.90;;;19.80;99.90;;;;;;5096289;28;20080;-68
2021/12/02 12:48:33;;;;;;;3.08;0.93;;;19.80;99.90;;;;;;5094110;28;20828;-68
2021/12/02 12:51:12;;;;;;;8.40;7.28;;;19.70;99.90;;;;;;5085531;28;20035;-68
2021/12/02 12:53:43;;;;;;;5.90;3.45;;;19.70;99.90;;;;;;5101307;28;20030;-68
2021/12/02 12:56:13;;;;;;;2.67;2.13;;;19.70;99.90;;;;;;5086856;28;20032;-66
2021/12/02 12:59:00;;;;;;;2.35;1.10;;;19.70;99.90;;;;;;5094359;28;20482;-69
2021/12/02 13:01:28;;;;;;;1.73;1.13;;;19.70;99.90;;;;;;5094340;28;20112;-69
2021/12/02 13:04:07;;;;;;;2.10;1.40;;;19.60;99.90;;;;;;5089626;28;20134;-68
2021/12/02 13:06:49;;;;;;;3.13;1.00;;;19.60;99.90;;;;;;5098838;28;20130;-69
2021/12/02 13:09:53;;;;;;;1.48;0.90;;;19.60;99.90;;;;;;5092398;28;20032;-68
2021/12/02 13:12:45;;;;;;;1.40;0.80;;;19.60;99.90;;;;;;5098847;28;20031;-69
2021/12/02 13:15:17;;;;;;;1.75;1.10;;;19.50;99.90;;;;;;5094922;28;20043;-68
2021/12/02 13:17:47;;;;;;;2.87;1.17;;;19.40;99.90;;;;;;5079123;28;20107;-67
2021/12/02 13:20:47;;;;;;;2.30;1.20;;;19.40;99.90;;;;;;5093445;28;20260;-68
2021/12/02 13:23:14;;;;;;;2.03;1.13;;;19.30;99.90;;;;;;5092297;28;20023;-69
2021/12/02 13:25:59;;;;;;;4.40;1.02;;;19.40;99.90;;;;;;5080493;28;20084;-67
2021/12/02 13:28:28;;;;;;;2.40;0.85;;;19.30;99.90;;;;;;5097547;28;20059;-68
2021/12/02 13:30:59;;;;;;;1.55;0.80;;;19.40;99.90;;;;;;5092260;28;20032;-68